Time;durP1;ratioP1;P1;durP2;ratioP2;P2;SDS_P1;SDS_P2;PMS_P1;PMS_P2;Temp;Humidity;BMP_temperature;BMP_pressure;BME280_temperature;BME280_humidity;BME280_pressure;Samples;Min_cycle;Max_cycle;Signal;HPM_P1;HPM_P2
2021/05/23 05:11:18;;;;;;;1.93;0.80;;;10.60;99.90;;;11.52;100.00;99919.22;5001026;28;20229;-61
2021/05/23 05:14:51;;;;;;;3.83;1.00;;;10.70;99.90;;;11.66;100.00;99912.31;4946238;28;20497;-61
2021/05/23 05:21:40;;;;;;;2.47;1.27;;;10.90;99.90;;;11.92;100.00;99914.75;4989140;28;21012;-62
2021/05/23 05:25:00;;;;;;;1.63;0.90;;;11.10;99.90;;;12.13;100.00;99915.78;5007993;28;20337;-61
2021/05/23 05:32:01;;;;;;;4.73;1.10;;;11.30;99.90;;;12.41;100.00;99917.94;4987043;28;20861;-62
2021/05/23 05:35:26;;;;;;;2.27;1.20;;;11.40;99.90;;;12.49;100.00;99934.81;4986136;28;20225;-62
2021/05/23 05:38:37;;;;;;;3.83;1.30;;;11.50;99.90;;;12.53;100.00;99916.53;5008289;28;20615;-61
2021/05/23 05:42:00;;;;;;;3.73;0.90;;;11.50;99.90;;;12.73;100.00;99928.44;5002174;28;20454;-62
2021/05/23 05:48:40;;;;;;;3.53;1.30;;;11.70;99.90;;;13.81;100.00;99922.63;4984725;28;20632;-62
2021/05/23 05:51:51;;;;;;;5.00;1.40;;;11.90;99.90;;;14.21;100.00;99926.63;5004327;28;20353;-61
2021/05/23 05:55:08;;;;;;;4.93;1.47;;;12.30;99.90;;;14.19;100.00;99917.91;5004301;28;21195;-62
2021/05/23 05:58:28;;;;;;;2.70;1.10;;;12.60;99.90;;;14.38;100.00;99923.47;5002048;28;20433;-61
2021/05/23 06:01:58;;;;;;;2.03;1.20;;;13.00;99.90;;;14.59;100.00;99932.63;4993046;28;20226;-61
2021/05/23 06:05:21;;;;;;;4.70;0.90;;;13.30;99.90;;;14.41;100.00;99929.53;4998264;28;20249;-60
2021/05/23 06:12:25;;;;;;;1.83;0.73;;;13.80;97.80;;;14.32;100.00;99937.72;5006410;28;20441;-62
2021/05/23 06:15:52;;;;;;;2.27;0.80;;;13.90;95.70;;;14.44;100.00;99931.88;5007128;28;20482;-61
2021/05/23 06:19:11;;;;;;;2.17;1.00;;;14.00;96.10;;;14.39;100.00;99932.41;4993744;28;20495;-61
2021/05/23 06:30:07;;;;;;;3.57;1.43;;;14.20;94.70;;;14.94;100.00;99931.72;4984855;28;20802;-62
2021/05/23 06:37:36;;;;;;;1.27;0.73;;;14.50;92.80;;;15.47;100.00;99940.16;4984827;28;20621;-65
2021/05/23 06:40:15;;;;;;;1.73;0.83;;;14.60;92.20;;;15.44;100.00;99940.56;4941128;28;20451;-61
2021/05/23 06:42:42;;;;;;;2.00;0.80;;;14.90;91.50;;;15.53;100.00;99931.28;4947545;28;20595;-62
2021/05/23 06:45:09;;;;;;;4.00;1.10;;;15.00;91.20;;;15.82;100.00;99939.13;4953622;28;20231;-62
2021/05/23 06:47:36;;;;;;;1.60;0.60;;;15.20;90.60;;;15.76;100.00;99942.63;4986409;28;20548;-62
2021/05/23 06:50:07;;;;;;;1.80;0.90;;;15.30;89.90;;;15.88;100.00;99944.75;4978251;28;20489;-62
2021/05/23 06:52:37;;;;;;;2.93;0.90;;;15.40;88.80;;;15.74;100.00;99946.56;4987550;28;20912;-62
2021/05/23 06:55:05;;;;;;;2.53;0.90;;;15.60;85.10;;;15.65;100.00;99936.97;4984876;28;20422;-62
2021/05/23 06:57:32;;;;;;;1.23;1.00;;;15.70;83.90;;;15.68;100.00;99940.13;4967525;28;20527;-62
2021/05/23 06:59:59;;;;;;;3.38;0.80;;;15.80;82.20;;;16.15;100.00;99957.34;4986994;28;20223;-62
2021/05/23 07:02:27;;;;;;;2.67;0.50;;;15.80;83.10;;;16.13;100.00;99951.31;4977233;28;20254;-62
2021/05/23 07:04:54;;;;;;;2.08;0.75;;;16.00;82.40;;;16.49;100.00;99959.94;4986225;28;20547;-61
2021/05/23 07:07:23;;;;;;;2.85;0.80;;;16.10;83.30;;;16.38;100.00;99944.31;4984151;28;20722;-62
2021/05/23 07:09:51;;;;;;;4.63;1.30;;;16.30;79.20;;;16.31;100.00;99950.75;4983214;28;20705;-62
2021/05/23 07:12:17;;;;;;;4.05;1.27;;;16.50;78.10;;;15.97;100.00;99952.47;4981852;28;20230;-62
2021/05/23 07:14:44;;;;;;;2.75;0.88;;;16.60;76.60;;;16.10;100.00;99954.41;4982595;28;20642;-62
2021/05/23 07:17:10;;;;;;;3.47;1.15;;;16.60;75.20;;;16.13;100.00;99954.84;4982400;28;21115;-62
2021/05/23 07:19:36;;;;;;;3.10;1.10;;;16.70;72.60;;;16.31;100.00;99957.00;4980115;28;20482;-62
2021/05/23 07:22:03;;;;;;;3.45;1.00;;;16.70;73.10;;;16.59;100.00;99943.31;4982665;28;20771;-62
2021/05/23 07:24:29;;;;;;;2.35;0.75;;;16.70;72.50;;;16.44;100.00;99957.00;4986836;28;20546;-61
2021/05/23 07:26:57;;;;;;;1.48;0.85;;;16.80;71.90;;;16.66;100.00;99952.31;4985592;28;20721;-63
2021/05/23 07:29:23;;;;;;;3.30;0.82;;;16.90;71.00;;;16.34;100.00;99950.31;4983622;28;20732;-62
2021/05/23 07:31:50;;;;;;;2.00;0.80;;;17.00;69.30;;;16.42;100.00;99953.69;4968538;28;20801;-61
2021/05/23 07:34:16;;;;;;;1.40;0.75;;;17.00;70.90;;;16.85;100.00;99947.97;4985794;28;20270;-62
2021/05/23 07:36:42;;;;;;;2.25;0.70;;;17.10;70.80;;;16.71;100.00;99952.50;4986485;28;20536;-61
2021/05/23 07:39:09;;;;;;;1.55;0.80;;;17.20;70.20;;;17.08;100.00;99955.66;4985713;28;20490;-61
2021/05/23 07:41:35;;;;;;;2.92;0.90;;;17.20;70.40;;;17.12;100.00;99951.50;4986619;28;20235;-62
2021/05/23 07:44:03;;;;;;;1.77;0.80;;;17.40;68.30;;;16.98;100.00;99949.84;4984149;28;20558;-61
2021/05/23 07:46:30;;;;;;;2.35;0.85;;;17.50;65.90;;;16.84;100.00;99927.38;4981466;28;20436;-62
2021/05/23 07:48:57;;;;;;;3.03;1.13;;;17.60;64.60;;;16.81;100.00;99946.72;4982487;28;20246;-58
2021/05/23 07:51:23;;;;;;;2.75;0.95;;;17.60;62.80;;;16.81;100.00;99950.22;4978310;28;20231;-61
2021/05/23 07:53:51;;;;;;;3.00;0.90;;;17.50;63.90;;;16.88;100.00;99964.59;4982718;28;20581;-62
2021/05/23 07:56:21;;;;;;;2.92;1.08;;;17.60;63.50;;;16.74;100.00;99972.88;4983186;28;20223;-61
2021/05/23 07:58:47;;;;;;;3.45;1.00;;;17.50;63.10;;;17.06;100.00;99969.38;4983601;28;20285;-62
2021/05/23 08:01:14;;;;;;;2.67;0.80;;;17.60;64.00;;;17.11;100.00;99972.28;4986652;28;20571;-61
2021/05/23 08:03:41;;;;;;;2.35;0.80;;;17.60;63.50;;;17.30;100.00;99973.34;4980758;28;20430;-62
2021/05/23 08:06:08;;;;;;;2.72;0.85;;;17.70;63.30;;;16.89;100.00;99976.25;4979434;28;20508;-61
2021/05/23 08:08:35;;;;;;;3.63;0.95;;;17.70;62.20;;;16.55;100.00;99963.69;4959637;28;20515;-62
2021/05/23 08:11:02;;;;;;;1.70;0.93;;;17.60;61.40;;;16.68;100.00;99963.75;4986648;28;20716;-62
2021/05/23 08:13:29;;;;;;;2.28;1.10;;;17.50;61.30;;;17.21;100.00;99961.88;4985303;28;20261;-63
2021/05/23 08:15:57;;;;;;;5.45;1.15;;;17.40;62.80;;;17.62;100.00;99978.91;4986396;28;20609;-63
2021/05/23 08:18:28;;;;;;;3.60;1.05;;;17.50;63.90;;;17.88;100.00;99970.75;4988265;28;20624;-62
2021/05/23 08:20:56;;;;;;;1.90;0.88;;;17.70;64.30;;;17.68;100.00;99980.81;4989316;28;20225;-63
2021/05/23 08:23:24;;;;;;;2.50;0.88;;;18.00;62.00;;;17.77;100.00;99966.00;5004791;28;20348;-63
2021/05/23 08:25:51;;;;;;;2.47;0.70;;;18.20;61.70;;;17.43;100.00;99977.91;4996760;28;20220;-62
2021/05/23 08:28:18;;;;;;;1.30;0.68;;;18.30;61.20;;;17.49;100.00;99977.03;4996912;28;20373;-61
2021/05/23 08:30:47;;;;;;;1.67;1.00;;;18.40;60.40;;;17.32;100.00;99967.69;5001362;28;20219;-61
2021/05/23 08:33:14;;;;;;;1.67;0.90;;;18.40;59.20;;;17.17;100.00;99979.59;4998668;28;20246;-61
2021/05/23 08:35:44;;;;;;;2.10;0.80;;;18.40;58.90;;;17.47;100.00;99987.25;5005745;28;20649;-61
2021/05/23 08:38:11;;;;;;;2.15;0.80;;;18.40;59.20;;;17.05;100.00;99996.63;5003305;28;20485;-62
2021/05/23 08:40:38;;;;;;;2.88;0.90;;;18.50;58.50;;;16.81;100.00;99979.94;5005961;28;20665;-62
2021/05/23 08:43:08;;;;;;;3.33;0.90;;;18.40;58.50;;;16.54;100.00;99989.03;5004557;28;20453;-62
2021/05/23 08:45:34;;;;;;;2.10;0.80;;;18.20;58.10;;;16.92;100.00;99991.22;5005138;28;20401;-62
2021/05/23 08:48:01;;;;;;;0.98;0.60;;;17.90;58.50;;;17.29;100.00;99981.66;5002353;28;20511;-62
2021/05/23 08:50:29;;;;;;;1.25;0.55;;;17.90;58.90;;;17.50;100.00;99987.66;4999627;28;20681;-61
2021/05/23 08:52:58;;;;;;;0.95;0.43;;;17.90;58.60;;;17.57;100.00;99987.63;5003965;28;20545;-62
2021/05/23 08:55:26;;;;;;;2.80;1.00;;;18.00;58.20;;;17.46;100.00;99985.56;5000671;28;20388;-62
2021/05/23 08:57:55;;;;;;;1.30;0.57;;;18.10;57.70;;;18.09;100.00;99989.41;5004922;28;20265;-61
2021/05/23 09:00:23;;;;;;;2.67;0.77;;;18.10;58.30;;;18.03;100.00;99989.44;5006404;28;20508;-61
2021/05/23 09:02:55;;;;;;;1.45;0.60;;;18.20;57.60;;;18.22;100.00;99986.66;5001748;28;20262;-62
2021/05/23 09:05:30;;;;;;;2.67;0.52;;;18.40;56.90;;;18.47;100.00;99996.75;5005470;28;20681;-62
2021/05/23 09:07:59;;;;;;;1.65;0.45;;;18.60;57.00;;;17.64;100.00;99985.81;5004834;28;20908;-61
2021/05/23 09:10:28;;;;;;;1.17;0.57;;;18.70;54.90;;;17.37;100.00;99998.50;5004926;28;20321;-62
2021/05/23 09:12:55;;;;;;;2.17;0.60;;;18.60;55.10;;;17.26;100.00;100003.69;5005450;28;20222;-61
2021/05/23 09:15:21;;;;;;;4.20;1.83;;;18.40;55.60;;;16.90;100.00;99990.59;5001225;28;20846;-61
2021/05/23 09:18:01;;;;;;;2.00;1.15;;;18.20;56.40;;;17.04;100.00;99998.50;5004892;28;20317;-61
2021/05/23 09:20:28;;;;;;;1.92;0.73;;;18.00;57.40;;;17.03;100.00;99996.84;5005542;28;20226;-61
2021/05/23 09:22:55;;;;;;;1.33;0.73;;;17.90;58.20;;;17.10;100.00;100002.22;5005212;28;20613;-62
2021/05/23 09:25:34;;;;;;;2.65;0.70;;;17.90;58.10;;;17.09;100.00;99997.88;5005881;28;20713;-61
2021/05/23 09:28:02;;;;;;;1.88;0.80;;;17.80;58.80;;;16.84;100.00;100003.88;5005086;28;20337;-62
2021/05/23 09:30:31;;;;;;;1.80;0.70;;;17.70;58.30;;;16.68;100.00;100003.44;5003651;28;20895;-62
2021/05/23 09:32:58;;;;;;;1.83;0.85;;;17.60;58.40;;;16.44;100.00;100011.00;5002038;28;20508;-63
2021/05/23 09:35:26;;;;;;;2.90;1.25;;;17.50;58.70;;;16.59;100.00;100015.41;5003687;28;20900;-62
2021/05/23 09:38:02;;;;;;;3.15;0.95;;;17.30;59.40;;;16.57;100.00;100015.63;5002342;28;20502;-62
2021/05/23 09:40:33;;;;;;;2.20;0.70;;;17.20;60.00;;;16.85;100.00;100013.63;5001926;28;20218;-62
2021/05/23 09:43:02;;;;;;;3.15;0.80;;;17.10;61.00;;;17.51;100.00;100012.84;5000704;28;20233;-61
2021/05/23 09:45:41;;;;;;;1.85;0.60;;;17.20;61.30;;;18.29;100.00;100009.13;5004922;28;20632;-62
2021/05/23 09:48:16;;;;;;;1.75;0.60;;;17.50;62.00;;;17.82;100.00;100006.78;4999888;28;20628;-62
2021/05/23 09:50:45;;;;;;;3.55;0.80;;;17.80;60.10;;;18.26;100.00;100006.03;5004761;28;20227;-63
2021/05/23 09:53:24;;;;;;;0.77;0.63;;;18.00;59.80;;;18.30;100.00;99999.94;5004755;28;20556;-61
2021/05/23 09:55:59;;;;;;;1.33;0.50;;;18.30;58.30;;;17.82;100.00;100001.34;5005320;28;20228;-62
2021/05/23 09:58:28;;;;;;;1.17;0.52;;;18.40;55.80;;;17.84;100.00;100008.22;4996906;28;20225;-62
2021/05/23 10:00:56;;;;;;;1.33;0.70;;;18.40;56.00;;;17.93;100.00;100014.22;5001567;28;20643;-63
2021/05/23 10:03:27;;;;;;;0.55;0.45;;;18.40;55.90;;;18.43;100.00;100020.72;5004068;28;20653;-63
2021/05/23 10:05:54;;;;;;;1.63;0.60;;;18.50;56.50;;;17.98;100.00;100024.44;5004104;28;20500;-62
2021/05/23 10:08:21;;;;;;;1.30;0.70;;;18.60;55.60;;;17.68;100.00;100019.50;5001035;28;20497;-61
2021/05/23 10:10:48;;;;;;;1.63;0.50;;;18.70;55.10;;;17.36;100.00;100021.16;5002039;28;20363;-62
2021/05/23 10:13:17;;;;;;;1.08;0.50;;;18.60;55.10;;;17.64;100.00;100029.09;5005728;28;20499;-62
2021/05/23 10:15:49;;;;;;;2.53;0.60;;;18.50;55.10;;;17.19;100.00;100031.56;4993006;28;20382;-62
2021/05/23 10:18:17;;;;;;;1.85;0.80;;;18.40;55.60;;;16.84;100.00;100025.50;5003691;28;20339;-61
2021/05/23 10:20:44;;;;;;;1.13;0.60;;;18.20;56.10;;;17.02;100.00;100037.59;5003989;28;20261;-61
2021/05/23 10:23:16;;;;;;;2.03;0.70;;;18.00;57.00;;;16.94;100.00;100040.50;5001715;28;20662;-61
2021/05/23 10:25:48;;;;;;;2.45;0.60;;;17.80;57.50;;;17.00;100.00;100040.50;5003092;28;20256;-61
2021/05/23 10:28:18;;;;;;;0.73;0.50;;;17.60;58.30;;;17.50;100.00;100039.06;4981803;28;20223;-62
2021/05/23 10:30:49;;;;;;;2.60;0.63;;;17.60;58.30;;;17.95;100.00;100034.63;5004800;28;20628;-61
2021/05/23 10:33:16;;;;;;;0.52;0.40;;;17.70;58.00;;;18.30;100.00;100042.44;4999242;28;20456;-62
2021/05/23 10:35:44;;;;;;;3.72;0.60;;;18.00;57.80;;;18.73;100.00;100036.44;4999615;28;20663;-62
2021/05/23 10:38:12;;;;;;;1.20;0.50;;;18.40;57.40;;;19.26;100.00;100034.22;4982834;28;20491;-61
2021/05/23 10:40:51;;;;;;;1.85;0.60;;;18.80;57.00;;;18.81;100.00;100039.72;4997981;28;20547;-61
2021/05/23 10:43:27;;;;;;;1.65;0.57;;;19.30;54.90;;;18.29;100.00;100046.22;5004170;28;20593;-61
2021/05/23 10:46:06;;;;;;;0.60;0.40;;;19.50;53.80;;;18.10;100.00;100050.63;5004100;28;20221;-62
2021/05/23 10:48:33;;;;;;;0.90;0.40;;;19.60;53.50;;;17.83;100.00;100052.56;5002412;28;20693;-61
2021/05/23 11:43:40;;;;;;;0.50;0.30;;;19.10;58.70;;;16.56;100.00;100107.69;5004874;28;20412;-62
2021/05/23 12:23:09;;;;;;;2.33;0.70;;;12.90;99.90;;;14.17;100.00;100172.88;4755305;29;20283;-62
2021/05/23 12:54:31;;;;;;;3.35;0.60;;;15.80;99.90;;;18.02;100.00;100144.81;4940275;28;20220;-60
2021/05/23 15:26:06;;;;;;;1.90;0.50;;;19.70;50.50;;;18.74;100.00;100217.84;4895174;28;20634;-62
2021/05/23 16:13:40;;;;;;;1.05;0.50;;;18.90;54.20;;;19.09;100.00;100220.22;4996827;28;20612;-62
2021/05/23 16:41:03;;;;;;;0.90;0.40;;;18.60;55.60;;;17.95;100.00;100261.19;4919692;28;20224;-62
2021/05/23 17:00:06;;;;;;;2.13;0.60;;;18.20;59.00;;;17.62;100.00;100290.03;4840399;29;20658;-61
2021/05/23 18:04:05;;;;;;;2.95;1.33;;;15.90;83.00;;;16.52;100.00;100331.41;4938267;28;20743;-61
2021/05/23 19:32:02;;;;;;;5.03;4.53;;;13.20;99.90;;;13.27;100.00;100428.91;4849784;29;20531;-61
2021/05/23 19:35:18;;;;;;;8.97;8.07;;;13.00;99.90;;;13.07;100.00;100432.13;4773662;29;20650;-59
2021/05/23 19:38:42;;;;;;;4.97;4.13;;;12.80;99.90;;;12.90;100.00;100432.13;4849859;29;20417;-61
2021/05/23 19:41:53;;;;;;;4.67;4.27;;;12.70;99.90;;;12.77;100.00;100437.19;4940091;28;20238;-60
2021/05/23 20:17:22;;;;;;;3.10;2.90;;;11.80;99.90;;;12.29;100.00;100472.03;5007372;28;20589;-61
2021/05/23 20:19:49;;;;;;;6.53;2.50;;;11.70;99.90;;;12.21;100.00;100481.75;5002375;28;20312;-60
2021/05/23 20:22:16;;;;;;;3.27;2.97;;;11.70;99.90;;;12.05;100.00;100484.38;4990950;28;20517;-61
2021/05/23 20:24:43;;;;;;;3.80;3.30;;;11.70;99.90;;;11.99;100.00;100486.91;5008845;28;21049;-61
2021/05/23 20:27:10;;;;;;;5.93;4.73;;;11.70;99.90;;;11.83;100.00;100485.81;5007770;28;20834;-60
2021/05/23 20:29:38;;;;;;;8.93;7.00;;;11.70;99.90;;;11.71;100.00;100489.75;5009293;28;20309;-61
2021/05/23 20:32:07;;;;;;;4.40;3.93;;;11.60;99.90;;;11.61;100.00;100493.56;5008921;28;20446;-59
2021/05/23 20:34:34;;;;;;;4.77;4.10;;;11.60;99.90;;;11.55;100.00;100488.81;5009229;28;20288;-61
2021/05/23 20:37:01;;;;;;;4.40;3.77;;;11.50;99.90;;;11.60;100.00;100491.88;5008793;28;20210;-60
2021/05/23 20:39:28;;;;;;;5.67;4.27;;;11.50;99.90;;;11.44;100.00;100492.63;4990619;28;20206;-62
2021/05/23 20:41:55;;;;;;;6.53;5.40;;;11.40;99.90;;;11.30;100.00;100496.72;5009080;28;20278;-62
2021/05/23 20:44:21;;;;;;;5.27;4.30;;;11.30;99.90;;;11.46;100.00;100493.31;5009020;28;20324;-59
2021/05/23 20:46:47;;;;;;;5.10;4.03;;;11.20;99.90;;;11.44;100.00;100501.50;5008636;28;20214;-61
2021/05/23 20:49:23;;;;;;;5.03;3.97;;;11.20;99.90;;;11.48;100.00;100500.19;5008391;28;20218;-60
2021/05/23 20:51:54;;;;;;;3.97;3.57;;;11.10;99.90;;;11.48;100.00;100500.19;5005608;28;20234;-59
2021/05/23 20:54:23;;;;;;;4.20;3.17;;;11.00;99.90;;;11.33;100.00;100498.25;5009336;28;20258;-60
2021/05/23 20:56:50;;;;;;;3.37;3.00;;;11.00;99.90;;;11.34;100.00;100505.28;5006688;28;20946;-61
2021/05/23 20:59:17;;;;;;;3.93;2.83;;;11.00;99.90;;;11.20;100.00;100506.69;5009178;28;20328;-60
2021/05/23 21:01:43;;;;;;;3.13;2.73;;;10.90;99.90;;;11.22;100.00;100511.91;5008838;28;20556;-60
2021/05/23 21:04:10;;;;;;;3.53;3.20;;;10.80;99.90;;;11.15;100.00;100514.34;5008440;28;20261;-61
2021/05/23 21:06:36;;;;;;;3.30;2.80;;;10.80;99.90;;;11.28;100.00;100514.78;5009001;28;20502;-61
2021/05/23 21:09:05;;;;;;;3.10;2.73;;;10.70;99.90;;;11.12;100.00;100525.41;5008107;28;20531;-61
2021/05/23 21:11:32;;;;;;;3.43;3.13;;;10.70;99.90;;;10.95;100.00;100519.06;5007644;28;20218;-60
2021/05/23 21:13:59;;;;;;;3.07;2.77;;;10.70;99.90;;;10.89;100.00;100525.03;4990340;28;20219;-60
2021/05/23 21:16:25;;;;;;;3.23;2.93;;;10.60;99.90;;;10.82;100.00;100526.66;5007944;28;20559;-59
2021/05/23 21:18:52;;;;;;;3.20;2.90;;;10.60;99.90;;;10.76;100.00;100528.09;5008701;28;20233;-59
2021/05/23 21:21:20;;;;;;;2.43;2.23;;;10.50;99.90;;;10.83;100.00;100532.84;5007983;28;20203;-60
2021/05/23 21:23:46;;;;;;;4.13;3.20;;;10.50;99.90;;;10.75;100.00;100538.97;5008678;28;20344;-60
2021/05/23 21:26:14;;;;;;;3.30;3.00;;;10.40;99.90;;;10.75;100.00;100534.47;5008589;28;20225;-60
2021/05/23 21:28:40;;;;;;;4.30;3.77;;;10.40;99.90;;;10.83;100.00;100539.03;5009229;28;20696;-60
2021/05/23 21:31:06;;;;;;;4.50;4.10;;;10.40;99.90;;;10.82;100.00;100537.34;5008220;28;20289;-61
2021/05/23 21:33:33;;;;;;;9.37;8.00;;;10.40;99.90;;;10.87;100.00;100531.56;5008656;28;20726;-61
2021/05/23 21:36:00;;;;;;;6.57;5.90;;;10.50;99.90;;;10.89;100.00;100535.72;4990233;28;20486;-61
2021/05/23 21:38:26;;;;;;;7.33;6.47;;;10.50;99.90;;;10.92;100.00;100535.44;5007925;28;20253;-60
2021/05/23 21:40:53;;;;;;;7.17;6.20;;;10.50;99.90;;;10.94;100.00;100538.81;5008802;28;20612;-61
2021/05/23 21:43:21;;;;;;;6.70;5.93;;;10.60;99.90;;;10.96;100.00;100534.13;5008600;28;20269;-60
2021/05/23 21:45:49;;;;;;;7.10;6.30;;;10.60;99.90;;;11.00;100.00;100540.84;5008561;28;20309;-60
2021/05/23 21:48:17;;;;;;;5.93;5.40;;;10.60;99.90;;;11.04;100.00;100539.56;5008730;28;20972;-59
2021/05/23 21:50:45;;;;;;;6.03;5.33;;;10.60;99.90;;;11.14;100.00;100542.13;4989832;28;20858;-60
2021/05/23 21:53:12;;;;;;;5.00;4.50;;;10.70;99.90;;;11.12;100.00;100536.97;5008578;28;20222;-58
2021/05/23 21:55:39;;;;;;;4.97;4.40;;;10.70;99.90;;;11.18;100.00;100540.84;5008276;28;20221;-60
2021/05/23 21:58:06;;;;;;;8.33;6.83;;;10.70;99.90;;;11.14;100.00;100542.13;5007784;28;20246;-60
2021/05/23 22:00:33;;;;;;;7.73;5.60;;;10.70;99.90;;;11.09;100.00;100550.66;5008278;28;20981;-61
2021/05/23 22:03:01;;;;;;;5.50;5.00;;;10.70;99.90;;;11.11;100.00;100551.34;5007606;28;20233;-60
2021/05/23 22:05:28;;;;;;;4.90;4.50;;;10.70;99.90;;;11.20;100.00;100554.06;5008486;28;20202;-60
2021/05/23 22:07:59;;;;;;;5.57;4.93;;;10.70;99.90;;;11.19;100.00;100552.38;5008327;28;20225;-61
2021/05/23 22:10:26;;;;;;;6.00;4.57;;;10.70;99.90;;;11.31;100.00;100560.03;5008783;28;20544;-60
2021/05/23 22:12:57;;;;;;;5.20;3.80;;;10.70;99.90;;;11.44;100.00;100564.97;5008029;28;20232;-61
2021/05/23 22:15:24;;;;;;;5.60;3.80;;;10.70;99.90;;;11.53;100.00;100555.97;5008235;28;20729;-60
2021/05/23 22:17:52;;;;;;;4.33;3.80;;;10.70;99.90;;;11.45;100.00;100563.97;5007573;28;20398;-60
2021/05/23 22:20:19;;;;;;;4.73;3.63;;;10.80;99.90;;;11.47;100.00;100562.81;5008101;28;20214;-60
2021/05/23 22:22:46;;;;;;;3.67;3.37;;;10.80;99.90;;;11.57;100.00;100569.91;5007722;28;20329;-61
2021/05/23 22:25:15;;;;;;;5.10;3.20;;;10.80;99.90;;;11.59;100.00;100563.41;5007966;28;20328;-62
2021/05/23 22:27:43;;;;;;;4.33;3.60;;;10.90;99.90;;;11.60;100.00;100564.25;5007754;28;20607;-61
2021/05/23 22:30:13;;;;;;;3.77;3.37;;;10.90;99.90;;;11.62;100.00;100559.56;5007405;28;20637;-61
2021/05/23 22:32:41;;;;;;;6.27;3.60;;;10.90;99.90;;;11.64;100.00;100565.59;5007774;28;20280;-60
2021/05/23 22:35:14;;;;;;;3.60;3.10;;;10.90;99.90;;;11.59;100.00;100563.41;5007682;28;20714;-61
2021/05/23 22:37:41;;;;;;;3.90;3.50;;;10.90;99.90;;;11.59;100.00;100565.25;5008793;28;20554;-59
2021/05/23 22:40:15;;;;;;;4.30;3.90;;;10.90;99.90;;;11.50;100.00;100567.00;5007645;28;20218;-60
2021/05/23 22:42:42;;;;;;;4.00;3.43;;;10.80;99.90;;;11.45;100.00;100570.16;5008093;28;20273;-63
2021/05/23 22:45:11;;;;;;;5.47;3.83;;;10.80;99.90;;;11.43;100.00;100574.84;5008320;28;20211;-60
2021/05/23 22:47:38;;;;;;;4.07;3.70;;;10.70;99.90;;;11.42;100.00;100581.19;5007764;28;20253;-59
2021/05/23 22:50:06;;;;;;;4.77;3.27;;;10.70;99.90;;;11.35;100.00;100573.94;5010537;28;20210;-61
2021/05/23 22:52:35;;;;;;;4.30;3.70;;;10.60;99.90;;;11.26;100.00;100577.53;5010664;28;20877;-60
2021/05/23 22:55:01;;;;;;;4.00;3.70;;;10.60;99.90;;;11.16;100.00;100572.28;5011467;28;20867;-60
2021/05/23 22:57:28;;;;;;;5.30;3.47;;;10.50;99.90;;;11.15;100.00;100582.16;5010875;28;20245;-59
2021/05/23 22:59:54;;;;;;;5.07;3.20;;;10.40;99.90;;;11.04;100.00;100584.22;5011187;28;20694;-60
2021/05/23 23:02:22;;;;;;;4.10;3.20;;;10.30;99.90;;;11.00;100.00;100583.69;5010662;28;20738;-59
2021/05/23 23:04:51;;;;;;;4.23;3.40;;;10.30;99.90;;;11.06;100.00;100590.28;5011316;28;20566;-61
2021/05/23 23:07:18;;;;;;;4.10;3.47;;;10.30;99.90;;;11.02;100.00;100594.25;5010882;28;20308;-60
2021/05/23 23:09:45;;;;;;;3.50;3.20;;;10.20;99.90;;;11.04;100.00;100593.09;5010524;28;20207;-61
2021/05/23 23:12:12;;;;;;;3.67;3.07;;;10.20;99.90;;;11.04;100.00;100598.47;5010669;28;20222;-60
2021/05/23 23:14:38;;;;;;;3.30;3.00;;;10.20;99.90;;;10.96;100.00;100602.91;5010843;28;20241;-60
2021/05/23 23:17:05;;;;;;;3.40;3.10;;;10.20;99.90;;;10.90;100.00;100608.84;5010840;28;20218;-61
2021/05/23 23:19:32;;;;;;;5.37;3.27;;;10.10;99.90;;;10.87;100.00;100602.00;5010260;28;20558;-60
2021/05/23 23:21:58;;;;;;;3.53;3.20;;;10.10;99.90;;;10.85;100.00;100603.97;5010327;28;20659;-61
2021/05/23 23:24:25;;;;;;;3.67;3.37;;;10.00;99.90;;;10.82;100.00;100604.28;5009910;28;20369;-60
2021/05/23 23:26:52;;;;;;;3.97;3.03;;;10.00;99.90;;;10.84;100.00;100609.47;5010607;28;20623;-60
2021/05/23 23:29:18;;;;;;;4.23;2.87;;;9.90;99.90;;;10.81;100.00;100605.25;5011002;28;20214;-59
2021/05/23 23:31:45;;;;;;;3.50;3.20;;;9.90;99.90;;;10.80;100.00;100604.44;5010740;28;20226;-61
2021/05/23 23:34:11;;;;;;;3.70;3.33;;;9.80;99.90;;;10.80;100.00;100603.59;5009754;28;20995;-60
2021/05/23 23:36:38;;;;;;;4.87;3.27;;;9.80;99.90;;;10.68;100.00;100607.47;5010028;28;20639;-59
2021/05/23 23:39:06;;;;;;;3.93;3.27;;;9.70;99.90;;;10.67;100.00;100605.78;5009917;28;20635;-58
2021/05/23 23:41:32;;;;;;;3.37;3.00;;;9.70;99.90;;;10.63;100.00;100613.25;4989952;28;20227;-61
2021/05/23 23:44:00;;;;;;;3.50;3.10;;;9.70;99.90;;;10.53;100.00;100607.13;4972089;28;20723;-59
2021/05/23 23:46:26;;;;;;;3.50;3.20;;;9.60;99.90;;;10.52;100.00;100599.25;4972108;28;20234;-61
2021/05/23 23:48:53;;;;;;;3.90;3.50;;;9.60;99.90;;;10.39;100.00;100604.97;4990181;28;20215;-60
2021/05/23 23:51:38;;;;;;;3.53;3.23;;;9.50;99.90;;;10.34;100.00;100612.59;4972621;28;20687;-59
2021/05/23 23:54:07;;;;;;;4.97;3.57;;;9.50;99.90;;;10.31;100.00;100607.53;4990717;28;20353;-61
2021/05/23 23:56:33;;;;;;;3.53;2.97;;;9.40;99.90;;;10.37;100.00;100609.63;4990543;28;20233;-58
2021/05/23 23:59:01;;;;;;;3.87;3.20;;;9.40;99.90;;;10.36;100.00;100605.28;5010190;28;20211;-60
